Aérodrome :
LOGIN :

S'inscrire | Disclaimer

   EN    FR    IT 

 










Légende :    VFR   VFR Marginal   IFR   IFR Intensif   IFR Très Intensif
Visi : 
Plafond : 
>= 8 km
>= 3000ft
5 à 8 km
1000 à 3000 ft
1500m à 5 km
500 à 1000 ft
800 à 1500m
200 à 500 ft
< 800m
< 200 ft
Symboles :   Orages  Brouillard  Fortes neiges  Fortes précipitations  Vent > 20 kt
SIGMETs :   Divers  Orages  Givrage  Turbulence  Onde Orograph.  Cendres Volcan.






- Altitude de l'aérodrome : 464 ft
- Code IATA : EVX


LFOE - Evreux

DERNIER METAR :
  • 100430Z AUTO 20005KT CAVOK 00/M01 Q1027

METARs EXPIRÉS :
  • 100400Z AUTO 18005KT CAVOK 01/M00 Q1027
  • 100330Z AUTO 19005KT CAVOK 01/00 Q1027
  • 100300Z AUTO 21004KT CAVOK 00/M00 Q1027
  • 100230Z AUTO 24004KT CAVOK 00/M01 Q1027
  • 100200Z AUTO 22004KT CAVOK 01/M00 Q1027

TAF AMD TAF LFOE
Valide du 10 à 04h jusqu'au 11 à 03h UTC


100455Z 1004/1103 20005KT CAVOK
PROB40
TEMPO 1007/1009 0500 BCFG OVC001
BECMG 1009/1012 19012G22KT
BECMG 1014/1016 19015G30KT BKN018
TEMPO 1016/1018 6000 -RA
TEMPO 1018/1022 BKN008
BECMG 1022/1024 8000 -RA BKN008
TEMPO 1100/1103 3000 RA



MET'MAP, la Météo Aéronautique d'un coup d'oeil ! - Copyright ORBIFLY Décembre 2007 - Disclaimer

ORBIFLY MET'MAP TEAM :

Programmation & Développement : Alexandra Zaïnal
Sur une idée originale de : Baudouin d'Aumeries
Assistance à la programmation : Marc-Olivier Méhu
Soutien technique & logistique : Manuel Goepfert

Contact : metmap@orbifly.com




SOURCES & CREDITS :

   NOAA